createdAt,value
2019-03-29T00:02:13.618Z,93.20
2019-03-29T00:04:43.852Z,93.30
2019-03-29T00:07:14.075Z,93.30
2019-03-29T00:09:44.583Z,93.20
2019-03-29T00:12:14.754Z,93.40
2019-03-29T00:14:44.943Z,93.20
2019-03-29T00:17:15.137Z,93.20
2019-03-29T00:19:45.543Z,93.30
2019-03-29T00:22:15.895Z,93.30
2019-03-29T00:24:46.075Z,93.20
2019-03-29T00:27:17.076Z,93.20
2019-03-29T00:29:47.247Z,93.30
2019-03-29T00:32:17.424Z,93.20
2019-03-29T00:34:47.952Z,93.20
2019-03-29T00:37:18.304Z,93.10
2019-03-29T00:39:48.574Z,93.10
2019-03-29T00:42:19.420Z,93.10
2019-03-29T00:44:49.650Z,93.10
2019-03-29T00:47:19.827Z,93.10
2019-03-29T00:49:50.047Z,93.10
2019-03-29T00:52:20.883Z,93.10
2019-03-29T00:54:51.064Z,93.10
2019-03-29T00:57:21.271Z,93.20
2019-03-29T00:59:51.494Z,93.10
2019-03-29T01:02:21.962Z,93.20
2019-03-29T01:04:53.090Z,93.10
2019-03-29T01:07:24.233Z,93.20
2019-03-29T01:09:54.511Z,93.20
2019-03-29T01:12:24.690Z,93.20
2019-03-29T01:14:55.207Z,93.30
2019-03-29T01:17:25.415Z,93.30
2019-03-29T01:19:56.104Z,93.30
2019-03-29T01:22:26.547Z,93.30
2019-03-29T01:24:56.747Z,93.20
2019-03-29T01:27:27.250Z,93.30
2019-03-29T01:29:57.424Z,93.20
2019-03-29T01:32:27.601Z,93.20
2019-03-29T01:34:57.801Z,93.20
2019-03-29T01:37:28.047Z,93.30
2019-03-29T01:39:58.295Z,93.40
2019-03-29T01:42:28.514Z,93.30
2019-03-29T01:44:58.971Z,93.70
2019-03-29T01:47:29.933Z,93.40
2019-03-29T01:50:00.482Z,93.30
2019-03-29T01:52:31.630Z,93.30
2019-03-29T01:55:02.418Z,93.00
2019-03-29T01:57:32.900Z,93.30
2019-03-29T02:00:03.379Z,93.30
2019-03-29T02:02:35.651Z,93.30
2019-03-29T02:05:06.738Z,93.30
2019-03-29T02:07:38.078Z,93.30
2019-03-29T02:10:09.502Z,93.40
2019-03-29T02:12:39.713Z,93.40
2019-03-29T02:15:11.313Z,93.50
2019-03-29T02:17:42.770Z,93.60
2019-03-29T02:20:13.256Z,93.70
2019-03-29T02:22:43.471Z,93.70
2019-03-29T02:25:15.322Z,93.80
2019-03-29T02:27:46.341Z,93.80
2019-03-29T02:30:17.323Z,93.80
2019-03-29T02:32:47.906Z,93.80
2019-03-29T02:35:18.723Z,93.80
2019-03-29T02:37:48.901Z,93.80
2019-03-29T02:40:19.097Z,93.80
2019-03-29T02:42:49.356Z,93.90
2019-03-29T02:45:19.528Z,93.90
2019-03-29T02:47:49.707Z,93.90
2019-03-29T02:50:20.203Z,93.90
2019-03-29T02:52:50.363Z,93.80
2019-03-29T02:55:20.541Z,93.70
2019-03-29T02:57:51.408Z,93.70
2019-03-29T03:00:21.739Z,93.80
2019-03-29T03:02:52.163Z,93.90
2019-03-29T03:05:22.426Z,93.80
2019-03-29T03:07:53.133Z,93.80
2019-03-29T03:10:23.941Z,93.70
2019-03-29T03:12:54.104Z,93.80
2019-03-29T03:15:24.644Z,93.80
2019-03-29T03:17:54.872Z,93.80
2019-03-29T03:20:25.305Z,93.80
2019-03-29T03:22:55.562Z,93.80
2019-03-29T03:25:26.377Z,94.20
2019-03-29T03:27:56.900Z,93.80
2019-03-29T03:30:27.198Z,93.70
2019-03-29T03:32:57.676Z,93.80
2019-03-29T03:35:28.251Z,93.80
2019-03-29T03:37:58.535Z,93.80
2019-03-29T03:40:29.308Z,93.80
2019-03-29T03:42:59.788Z,93.80
2019-03-29T03:45:29.968Z,93.80
2019-03-29T03:48:00.414Z,93.70
2019-03-29T03:50:42.297Z,93.80
2019-03-29T03:53:12.641Z,93.90
2019-03-29T03:55:43.554Z,93.80
2019-03-29T03:58:13.946Z,93.90
2019-03-29T04:00:55.668Z,93.80
2019-03-29T04:03:26.517Z,93.80
2019-03-29T04:05:57.272Z,94.00
2019-03-29T04:08:27.914Z,93.90
2019-03-29T04:10:59.053Z,94.00
2019-03-29T04:13:29.290Z,93.90
2019-03-29T04:15:59.473Z,93.80
2019-03-29T04:18:29.646Z,93.80
2019-03-29T04:20:59.960Z,94.00
2019-03-29T04:23:30.157Z,94.00
2019-03-29T04:26:00.604Z,93.90
2019-03-29T04:28:30.780Z,93.80
2019-03-29T04:31:01.347Z,93.80
2019-03-29T04:33:31.787Z,93.90
2019-03-29T04:36:02.381Z,93.90
2019-03-29T04:38:32.715Z,94.10
2019-03-29T04:41:03.063Z,94.10
2019-03-29T04:43:33.239Z,94.20
2019-03-29T04:46:03.810Z,94.20
2019-03-29T04:48:35.053Z,94.20
2019-03-29T04:51:05.232Z,94.20
2019-03-29T04:53:35.401Z,94.30
2019-03-29T04:56:06.136Z,94.40
2019-03-29T04:58:36.380Z,94.40
2019-03-29T05:01:07.335Z,94.50
2019-03-29T05:03:37.499Z,94.50
2019-03-29T05:06:07.932Z,94.50
2019-03-29T05:08:38.096Z,94.50
2019-03-29T05:11:09.217Z,94.50
2019-03-29T05:13:39.399Z,94.50
2019-03-29T05:16:09.574Z,94.60
2019-03-29T05:18:39.793Z,94.70
2019-03-29T05:21:10.224Z,94.70
2019-03-29T05:23:40.394Z,94.90
2019-03-29T05:26:10.569Z,94.90
2019-03-29T05:28:40.742Z,95.00
2019-03-29T05:31:10.914Z,95.00
2019-03-29T05:33:41.086Z,95.10
2019-03-29T05:36:12.041Z,95.00
2019-03-29T05:38:42.467Z,95.20
2019-03-29T05:41:12.643Z,95.20
2019-03-29T05:43:42.895Z,95.20
2019-03-29T05:46:14.369Z,95.20
2019-03-29T05:48:44.545Z,95.10
2019-03-29T05:51:14.852Z,95.10
2019-03-29T05:53:45.027Z,95.10
2019-03-29T05:56:16.534Z,95.10
2019-03-29T05:58:46.720Z,95.10
2019-03-29T06:01:16.881Z,95.10
2019-03-29T06:03:47.068Z,95.10
2019-03-29T06:06:17.495Z,95.00
2019-03-29T06:08:48.545Z,95.00
2019-03-29T06:11:19.276Z,94.90
2019-03-29T06:13:50.018Z,95.00
2019-03-29T06:16:20.443Z,94.80
2019-03-29T06:18:50.618Z,94.90
2019-03-29T06:21:21.563Z,94.80
2019-03-29T06:23:51.736Z,94.80
2019-03-29T06:26:22.529Z,94.80
2019-03-29T06:28:53.002Z,94.70
2019-03-29T06:31:23.953Z,94.70
2019-03-29T06:33:54.142Z,94.30
2019-03-29T06:36:26.923Z,94.00
2019-03-29T06:38:57.662Z,94.10
2019-03-29T06:41:27.834Z,93.90
2019-03-29T06:43:58.063Z,93.80
2019-03-29T06:46:28.267Z,93.50
2019-03-29T06:48:58.683Z,93.70
2019-03-29T06:51:28.928Z,93.80
2019-03-29T06:53:59.335Z,93.60
2019-03-29T06:56:29.615Z,93.80
2019-03-29T06:58:59.798Z,93.80
2019-03-29T07:01:30.024Z,93.80
2019-03-29T07:04:00.580Z,93.70
2019-03-29T07:06:30.797Z,93.60
2019-03-29T07:09:01.044Z,93.60
2019-03-29T07:11:33.120Z,93.50
2019-03-29T07:14:03.401Z,93.30
2019-03-29T07:16:33.572Z,93.00
2019-03-29T07:19:05.072Z,93.40
2019-03-29T07:21:35.556Z,93.10
2019-03-29T07:24:05.772Z,93.40
2019-03-29T07:26:36.212Z,93.30
2019-03-29T07:29:06.770Z,92.90
2019-03-29T07:31:36.942Z,92.80
2019-03-29T07:34:07.210Z,92.10
2019-03-29T07:36:37.402Z,92.20
2019-03-29T07:39:07.736Z,92.20
2019-03-29T07:41:37.910Z,91.10
2019-03-29T07:44:09.101Z,91.50
2019-03-29T07:46:39.343Z,92.00
2019-03-29T07:49:09.514Z,90.40
2019-03-29T07:51:39.692Z,90.10
2019-03-29T07:54:10.027Z,88.80
2019-03-29T07:56:40.208Z,85.50
2019-03-29T07:59:10.673Z,83.40
2019-03-29T08:01:40.931Z,83.50
2019-03-29T08:04:11.399Z,84.10
2019-03-29T08:06:41.624Z,87.10
2019-03-29T08:09:22.137Z,85.80
2019-03-29T08:11:46.585Z,87.60
2019-03-29T08:14:15.615Z,87.00
2019-03-29T08:16:45.812Z,85.40
2019-03-29T08:19:16.119Z,84.20
2019-03-29T08:21:46.779Z,87.60
2019-03-29T08:24:17.023Z,85.40
2019-03-29T08:26:48.059Z,85.90
2019-03-29T08:29:18.247Z,86.20
2019-03-29T08:31:48.517Z,80.70
2019-03-29T08:34:18.679Z,84.60
2019-03-29T08:36:48.871Z,80.60
2019-03-29T08:39:27.732Z,80.00
2019-03-29T08:42:00.026Z,82.00
2019-03-29T08:44:23.085Z,81.60
2019-03-29T08:46:53.277Z,76.10
2019-03-29T08:49:23.447Z,77.30
2019-03-29T08:51:53.632Z,79.20
2019-03-29T08:54:24.085Z,77.40
2019-03-29T08:56:54.507Z,80.10
2019-03-29T08:59:24.915Z,77.40
2019-03-29T09:01:55.104Z,77.30
2019-03-29T09:04:26.194Z,77.50
2019-03-29T09:06:56.436Z,79.70
2019-03-29T09:09:26.674Z,81.30
2019-03-29T09:11:56.859Z,77.50
2019-03-29T09:14:27.110Z,80.30
2019-03-29T09:16:57.282Z,78.20
2019-03-29T09:19:28.751Z,80.30
2019-03-29T09:21:58.935Z,79.40
2019-03-29T09:24:29.131Z,78.50
2019-03-29T09:26:59.309Z,74.60
2019-03-29T09:29:30.447Z,75.40
2019-03-29T09:32:00.634Z,73.30
2019-03-29T09:34:30.873Z,70.70
2019-03-29T09:37:01.150Z,74.80
2019-03-29T09:39:31.330Z,72.80
2019-03-29T09:42:01.820Z,77.10
2019-03-29T09:44:32.260Z,77.20
2019-03-29T09:47:02.556Z,73.90
2019-03-29T09:49:33.025Z,72.40
2019-03-29T09:52:03.299Z,74.60
2019-03-29T09:54:33.542Z,70.10
2019-03-29T09:57:03.882Z,73.20
2019-03-29T09:59:34.167Z,73.00
2019-03-29T10:02:04.455Z,73.20
2019-03-29T10:04:34.890Z,75.20
2019-03-29T10:07:05.142Z,71.20
2019-03-29T10:09:35.327Z,73.20
2019-03-29T10:12:05.643Z,69.40
2019-03-29T10:14:35.811Z,71.00
2019-03-29T10:17:05.974Z,71.80
2019-03-29T10:19:36.471Z,68.50
2019-03-29T10:22:06.729Z,68.00
2019-03-29T10:24:36.944Z,68.40
2019-03-29T10:27:07.370Z,67.90
2019-03-29T10:29:38.607Z,73.30
2019-03-29T10:32:09.533Z,69.00
2019-03-29T10:34:39.952Z,72.20
2019-03-29T10:37:10.211Z,70.80
2019-03-29T10:39:40.689Z,69.10
2019-03-29T10:42:10.856Z,70.30
2019-03-29T10:44:41.112Z,68.20
2019-03-29T10:47:11.384Z,65.20
2019-03-29T10:49:41.614Z,70.50
2019-03-29T10:52:11.952Z,66.60
2019-03-29T10:54:42.130Z,71.10
2019-03-29T10:57:12.641Z,69.70
2019-03-29T10:59:42.944Z,67.30
2019-03-29T11:02:13.139Z,67.00
2019-03-29T11:04:43.383Z,69.80
2019-03-29T11:07:13.576Z,66.90
2019-03-29T11:09:43.780Z,66.10
2019-03-29T11:12:14.322Z,67.10
2019-03-29T11:14:44.750Z,68.20
2019-03-29T11:17:15.239Z,71.20
2019-03-29T11:19:45.750Z,68.20
2019-03-29T11:22:16.042Z,70.20
2019-03-29T11:24:46.300Z,69.60
2019-03-29T11:27:16.557Z,69.70
2019-03-29T11:29:46.731Z,66.10
2019-03-29T11:32:17.122Z,68.10
2019-03-29T11:34:47.299Z,67.90
2019-03-29T11:37:17.523Z,66.30
2019-03-29T11:39:47.737Z,68.10
2019-03-29T11:42:18.074Z,66.80
2019-03-29T11:44:48.307Z,67.50
2019-03-29T11:47:18.735Z,68.90
2019-03-29T11:49:52.848Z,68.90
2019-03-29T11:52:21.018Z,68.50
2019-03-29T11:54:51.195Z,67.50
2019-03-29T11:57:21.455Z,67.60
2019-03-29T11:59:51.694Z,66.30
2019-03-29T12:02:31.184Z,69.60
2019-03-29T12:04:54.404Z,65.60
2019-03-29T12:07:25.242Z,67.30
2019-03-29T12:09:56.071Z,64.70
2019-03-29T12:12:27.702Z,68.50
2019-03-29T12:14:58.135Z,67.10
2019-03-29T12:17:28.444Z,66.50
2019-03-29T12:19:58.793Z,66.40
2019-03-29T12:22:29.399Z,65.30
2019-03-29T12:25:00.355Z,64.50
2019-03-29T12:27:30.692Z,63.30
2019-03-29T12:30:01.139Z,67.00
2019-03-29T12:32:31.655Z,66.70
2019-03-29T12:35:01.833Z,65.50
2019-03-29T12:37:31.998Z,66.40
2019-03-29T12:40:02.174Z,65.40
2019-03-29T12:42:32.349Z,65.10
2019-03-29T12:45:02.858Z,68.20
2019-03-29T12:47:33.283Z,67.80
2019-03-29T12:50:03.533Z,66.50
2019-03-29T12:52:33.854Z,66.40
2019-03-29T12:55:04.138Z,67.10
2019-03-29T12:57:34.368Z,64.30
2019-03-29T13:00:05.234Z,65.60
2019-03-29T13:02:35.815Z,65.80
2019-03-29T13:05:06.762Z,66.50
2019-03-29T13:07:37.240Z,66.70
2019-03-29T13:10:07.958Z,66.00
2019-03-29T13:12:39.127Z,67.40
2019-03-29T13:15:09.774Z,67.30
2019-03-29T13:17:40.687Z,67.00
2019-03-29T13:20:11.327Z,66.30
2019-03-29T13:22:41.722Z,66.30
2019-03-29T13:25:13.458Z,67.90
2019-03-29T13:27:43.930Z,68.60
2019-03-29T13:30:17.176Z,68.40
2019-03-29T13:32:46.431Z,67.20
2019-03-29T13:35:17.159Z,67.50
2019-03-29T13:37:47.382Z,68.10
2019-03-29T13:40:21.048Z,67.80
2019-03-29T13:42:50.205Z,67.50
2019-03-29T13:45:20.902Z,66.70
2019-03-29T13:47:51.071Z,66.00
2019-03-29T13:50:21.254Z,67.50
2019-03-29T13:52:51.494Z,67.00
2019-03-29T13:55:21.920Z,66.20
2019-03-29T13:57:52.905Z,67.40
2019-03-29T14:00:23.090Z,68.20
2019-03-29T14:02:53.316Z,67.00
2019-03-29T14:05:23.597Z,68.00
2019-03-29T14:07:53.875Z,66.20
2019-03-29T14:10:24.220Z,66.10
2019-03-29T14:12:54.507Z,67.70
2019-03-29T14:15:25.142Z,67.10
2019-03-29T14:17:55.555Z,67.00
2019-03-29T14:20:33.789Z,67.30
2019-03-29T14:23:04.929Z,67.80
2019-03-29T14:25:35.166Z,67.30
2019-03-29T14:28:05.536Z,66.70
2019-03-29T14:30:36.079Z,65.90
2019-03-29T14:33:06.263Z,66.10
2019-03-29T14:35:36.748Z,65.80
2019-03-29T14:38:07.193Z,65.30
2019-03-29T14:40:37.895Z,65.20
2019-03-29T14:43:08.083Z,67.00
2019-03-29T14:45:38.288Z,66.50
2019-03-29T14:48:08.556Z,66.80
2019-03-29T14:50:39.560Z,66.60
2019-03-29T14:53:09.730Z,67.20
2019-03-29T14:55:39.912Z,66.10
2019-03-29T14:58:10.098Z,66.70
2019-03-29T15:00:42.755Z,66.60
2019-03-29T15:03:13.718Z,66.00
2019-03-29T15:05:43.958Z,65.20
2019-03-29T15:08:14.440Z,65.90
2019-03-29T15:10:46.020Z,65.30
2019-03-29T15:13:16.586Z,65.80
2019-03-29T15:15:47.770Z,65.20
2019-03-29T15:18:18.098Z,65.00
2019-03-29T15:20:53.737Z,65.90
2019-03-29T15:23:20.444Z,66.80
2019-03-29T15:25:50.606Z,65.90
2019-03-29T15:28:20.866Z,65.40
2019-03-29T15:30:52.518Z,65.40
2019-03-29T15:33:22.899Z,66.20
2019-03-29T15:35:53.101Z,65.70
2019-03-29T15:38:23.351Z,65.70
2019-03-29T15:40:53.510Z,66.80
2019-03-29T15:43:23.692Z,66.30
2019-03-29T15:45:54.151Z,65.60
2019-03-29T15:48:24.339Z,64.80
2019-03-29T15:50:54.853Z,66.40
2019-03-29T15:53:25.395Z,65.60
2019-03-29T15:55:55.573Z,65.10
2019-03-29T15:58:25.811Z,65.90
2019-03-29T16:00:56.314Z,66.40
2019-03-29T16:03:26.568Z,65.10
2019-03-29T16:05:57.252Z,65.30
2019-03-29T16:08:27.536Z,66.40
2019-03-29T16:10:57.717Z,66.60
2019-03-29T16:13:28.032Z,66.10
2019-03-29T16:15:58.311Z,66.80
2019-03-29T16:18:29.259Z,66.80
2019-03-29T16:20:59.680Z,66.00
2019-03-29T16:23:29.906Z,65.90
2019-03-29T16:26:00.379Z,66.40
2019-03-29T16:28:30.776Z,67.00
2019-03-29T16:31:01.539Z,67.10
2019-03-29T16:33:32.647Z,67.30
2019-03-29T16:36:03.122Z,67.10
2019-03-29T16:38:33.352Z,67.30
2019-03-29T16:41:03.720Z,67.70
2019-03-29T16:43:33.974Z,67.30
2019-03-29T16:46:04.397Z,67.90
2019-03-29T16:48:34.688Z,68.00
2019-03-29T16:51:05.354Z,67.80
2019-03-29T16:53:36.304Z,68.10
2019-03-29T16:56:07.079Z,67.70
2019-03-29T16:58:37.291Z,67.90
2019-03-29T17:01:07.839Z,68.40
2019-03-29T17:03:38.089Z,68.70
2019-03-29T17:06:08.276Z,68.90
2019-03-29T17:08:38.814Z,69.00
2019-03-29T17:11:09.552Z,69.00
2019-03-29T17:13:41.215Z,69.20
2019-03-29T17:16:11.731Z,69.20
2019-03-29T17:18:42.011Z,69.20
2019-03-29T17:21:12.641Z,69.60
2019-03-29T17:23:43.003Z,69.70
2019-03-29T17:26:13.192Z,70.20
2019-03-29T17:28:43.382Z,70.50
2019-03-29T17:31:14.500Z,70.60
2019-03-29T17:33:44.944Z,70.70
2019-03-29T17:36:15.139Z,71.00
2019-03-29T17:38:45.579Z,71.30
2019-03-29T17:41:15.783Z,71.50
2019-03-29T17:43:46.046Z,71.70
2019-03-29T17:46:17.133Z,72.20
2019-03-29T17:48:47.425Z,72.50
2019-03-29T17:51:17.928Z,72.90
2019-03-29T17:53:48.304Z,73.10
2019-03-29T17:56:18.644Z,73.20
2019-03-29T17:58:48.803Z,73.40
2019-03-29T18:01:18.979Z,73.00
2019-03-29T18:03:49.464Z,73.70
2019-03-29T18:06:19.694Z,74.10
2019-03-29T18:08:50.044Z,74.50
2019-03-29T18:11:20.522Z,74.90
2019-03-29T18:13:50.687Z,75.20
2019-03-29T18:16:30.635Z,74.20
2019-03-29T18:18:52.830Z,75.40
2019-03-29T18:21:23.003Z,75.80
2019-03-29T18:23:53.830Z,75.60
2019-03-29T18:26:24.332Z,76.40
2019-03-29T18:28:54.815Z,77.70
2019-03-29T18:31:25.003Z,77.40
2019-03-29T18:33:55.260Z,77.80
2019-03-29T18:36:25.735Z,77.60
2019-03-29T18:38:55.902Z,78.10
2019-03-29T18:41:26.159Z,78.40
2019-03-29T18:43:56.338Z,79.30
2019-03-29T18:46:27.043Z,79.80
2019-03-29T18:48:57.487Z,79.60
2019-03-29T18:51:27.662Z,79.90
2019-03-29T18:53:58.397Z,80.00
2019-03-29T18:56:28.958Z,79.70
2019-03-29T18:58:59.468Z,79.60
2019-03-29T19:01:29.640Z,80.00
2019-03-29T19:04:00.201Z,80.40
2019-03-29T19:06:31.772Z,80.70
2019-03-29T19:09:02.020Z,81.00
2019-03-29T19:11:33.818Z,81.30
2019-03-29T19:14:04.206Z,81.50
2019-03-29T19:16:34.414Z,81.50
2019-03-29T19:19:10.239Z,82.20
2019-03-29T19:21:36.487Z,81.90
2019-03-29T19:24:06.694Z,82.60
2019-03-29T19:26:37.935Z,82.60
2019-03-29T19:29:08.205Z,82.60
2019-03-29T19:31:38.528Z,82.40
2019-03-29T19:34:08.736Z,82.90
2019-03-29T19:36:38.915Z,82.80
2019-03-29T19:39:10.165Z,83.10
2019-03-29T19:41:40.901Z,83.40
2019-03-29T19:44:13.690Z,83.30
2019-03-29T19:46:43.209Z,83.00
2019-03-29T19:49:13.739Z,83.00
2019-03-29T19:51:44.168Z,83.10
2019-03-29T19:54:14.443Z,82.90
2019-03-29T19:56:44.854Z,82.80
2019-03-29T19:59:15.123Z,83.50
2019-03-29T20:01:45.695Z,84.30
2019-03-29T20:04:15.952Z,84.00
2019-03-29T20:06:46.140Z,83.70
2019-03-29T20:09:16.310Z,83.90
2019-03-29T20:11:46.626Z,83.80
2019-03-29T20:14:16.812Z,83.80
2019-03-29T20:16:47.400Z,84.00
2019-03-29T20:19:20.043Z,84.10
2019-03-29T20:21:50.558Z,85.90
2019-03-29T20:24:21.039Z,85.80
2019-03-29T20:26:51.202Z,85.90
2019-03-29T20:29:21.927Z,86.00
2019-03-29T20:31:53.102Z,85.70
2019-03-29T20:34:24.304Z,85.40
2019-03-29T20:36:54.471Z,86.20
2019-03-29T20:39:24.891Z,86.30
2019-03-29T20:41:55.128Z,86.00
2019-03-29T20:44:25.350Z,86.80
2019-03-29T20:46:55.545Z,87.20
2019-03-29T20:49:26.018Z,87.20
2019-03-29T20:51:56.354Z,86.90
2019-03-29T20:54:26.524Z,86.50
2019-03-29T20:56:56.993Z,86.40
2019-03-29T20:59:27.156Z,85.90
2019-03-29T21:01:57.327Z,86.50
2019-03-29T21:04:28.870Z,86.40
2019-03-29T21:06:59.043Z,86.30
2019-03-29T21:09:29.207Z,86.30
2019-03-29T21:11:59.479Z,86.70
2019-03-29T21:14:29.972Z,86.00
2019-03-29T21:17:00.618Z,86.30
2019-03-29T21:19:30.795Z,86.40
2019-03-29T21:22:01.054Z,86.90
2019-03-29T21:24:31.243Z,87.40
2019-03-29T21:27:01.436Z,87.00
2019-03-29T21:29:31.615Z,87.40
2019-03-29T21:32:01.799Z,87.90
2019-03-29T21:34:32.007Z,88.20
2019-03-29T21:37:02.225Z,87.80
2019-03-29T21:39:32.386Z,87.80
2019-03-29T21:42:02.684Z,88.20
2019-03-29T21:44:32.899Z,87.80
2019-03-29T21:47:03.090Z,86.70
2019-03-29T21:49:33.247Z,87.00
2019-03-29T21:52:03.530Z,87.10
2019-03-29T21:54:33.691Z,86.90
2019-03-29T21:57:03.959Z,86.60
2019-03-29T21:59:34.390Z,87.30
2019-03-29T22:02:04.563Z,87.50
2019-03-29T22:04:34.727Z,87.80
2019-03-29T22:07:04.987Z,87.90
2019-03-29T22:09:37.126Z,87.60
2019-03-29T22:12:07.292Z,88.30
2019-03-29T22:14:37.506Z,88.60
2019-03-29T22:17:07.956Z,88.40
2019-03-29T22:19:38.296Z,88.50
2019-03-29T22:22:08.466Z,88.90
2019-03-29T22:24:38.909Z,88.50
2019-03-29T22:27:09.099Z,88.30
2019-03-29T22:29:39.259Z,87.90
2019-03-29T22:32:09.478Z,87.90
2019-03-29T22:34:39.730Z,87.70
2019-03-29T22:37:10.217Z,88.50
2019-03-29T22:39:40.380Z,88.60
2019-03-29T22:42:10.564Z,88.50
2019-03-29T22:44:40.718Z,88.00
2019-03-29T22:47:11.426Z,88.60
2019-03-29T22:49:41.582Z,88.70
2019-03-29T22:52:11.808Z,89.00
2019-03-29T22:54:42.024Z,89.10
2019-03-29T22:57:12.188Z,89.60
2019-03-29T22:59:42.431Z,89.40
2019-03-29T23:02:12.961Z,88.60
2019-03-29T23:04:43.512Z,88.60
2019-03-29T23:07:13.741Z,88.50
2019-03-29T23:09:43.983Z,87.90
2019-03-29T23:12:14.170Z,88.90
2019-03-29T23:14:44.336Z,89.30
2019-03-29T23:17:14.507Z,88.30
2019-03-29T23:19:44.754Z,88.70
2019-03-29T23:22:15.978Z,89.00
2019-03-29T23:24:46.414Z,89.30
2019-03-29T23:27:16.661Z,89.50
2019-03-29T23:29:47.256Z,89.80
2019-03-29T23:32:17.403Z,89.60
2019-03-29T23:34:47.891Z,89.90
2019-03-29T23:37:18.149Z,89.10
2019-03-29T23:39:48.382Z,88.80
2019-03-29T23:42:18.598Z,88.90
2019-03-29T23:44:48.842Z,88.60
2019-03-29T23:47:19.079Z,89.30
2019-03-29T23:49:49.383Z,89.10
2019-03-29T23:52:19.666Z,89.80
2019-03-29T23:54:49.920Z,89.60
2019-03-29T23:57:20.151Z,89.00
2019-03-29T23:59:50.603Z,88.90
